עמוד ראשי
METAR-TAF:

METAR-TAF

שדות תעופה :

Cayo Coco, קובה

קו רוחב: 22-27-40N, קו אורך: 078-19-42W, גובה: 4מטר

תצפית מזג אוויר נוכחית

הדו"ח נערך לפני 1 שעות ו 13דקות, בשעה 22:50 UTC
רוח 8קשר מכיוון מזרח/דרום-מזרח
טמפרטורת 31 צלסיוס
לחות 79%
לחץ 1013 hPa
ראות: 9000מטר
עננים פזורים בגובה 2000רגל
עננים בינוניים בגובה 5000רגל

METAR: MUCC 122250Z 11008KT 9000 SCT020 BKN050 31/27 Q1013

זמן: 20:03 (00:03 UTC)

תחזית

הדו"ח נערך לפני 1 שעות ו 3דקות, בשעה 23:00 UTC
תחזית בתוקף מ 13 ב 00 UTC עד 13 ב 24 UTC
רוח 8קשר מכיוון דרום-מזרח
ראות: 9000מטר
עננים פזורים בגובה 2000רגל
עננים בינוניים בגובה 10000רגל
יעשה מ
13 ב 15 UTC עד 13 ב 16 UTC
רוח 4קשר עם כיוונים משתנים
עננים בינוניים בגובה 2000רגל
זמנית מ -
13 ב 22 UTC עד 13 ב 24 UTC
ראות: 5000מטר
עננים פזורים בגובה 1800רגל , קומולונימבוס.
סופת רעמים, גשם,

TAF: MUCC 122300Z 1300/1324 14008KT 9000 SCT020 BKN100 BECMG 1315/1316 VRB04KT BKN020 TEMPO 1322/1324 5000 TSRA SCT018CB

תצפיות ותחזיות מזג אוויר לגבי יותר מ- 4,000 שדות תעופה ברחבי העולם. דוחות METAR ו- TAF.

התחנות הזמינות מסומנות בנקודות צהובות ואדומות על גבי המפה.

העבר את העכבר לנקודה הצבעונית על מנת לראות את שם התחנה.

לאחר מכן, לחץ כדי לראות את תוכן ואת תחזיות מזג האוויר.

כדי לשנות את המפה: לחץ על הכפתורים הירוקים עם הפלוס השחור כדי להתקרב; על הכפתור הירוק עם המקף כדי להתרחק; או בחיצים הירוקים למפות סמוכות.


METAR-TAF: